sensor_id;sensor_type;location;lat;lon;timestamp;P1;durP1;ratioP1;P2;durP2;ratioP2
50225;SDS011;36113;50.742;6.432;2023-07-24T00:01:48;5.53;;;3.47;;
50225;SDS011;36113;50.742;6.432;2023-07-24T00:04:13;3.87;;;3.40;;
50225;SDS011;36113;50.742;6.432;2023-07-24T00:06:38;3.30;;;3.00;;
50225;SDS011;36113;50.742;6.432;2023-07-24T00:09:04;3.70;;;3.40;;
50225;SDS011;36113;50.742;6.432;2023-07-24T00:11:29;4.33;;;3.03;;
50225;SDS011;36113;50.742;6.432;2023-07-24T00:13:55;5.83;;;3.50;;
50225;SDS011;36113;50.742;6.432;2023-07-24T00:16:20;9.00;;;3.57;;
50225;SDS011;36113;50.742;6.432;2023-07-24T00:18:46;3.80;;;3.50;;
50225;SDS011;36113;50.742;6.432;2023-07-24T00:21:11;6.00;;;3.30;;
50225;SDS011;36113;50.742;6.432;2023-07-24T00:23:38;4.80;;;3.47;;
50225;SDS011;36113;50.742;6.432;2023-07-24T00:26:04;5.13;;;3.70;;
50225;SDS011;36113;50.742;6.432;2023-07-24T00:28:29;5.60;;;3.53;;
50225;SDS011;36113;50.742;6.432;2023-07-24T00:30:54;4.37;;;3.27;;
50225;SDS011;36113;50.742;6.432;2023-07-24T00:33:21;4.00;;;3.42;;
50225;SDS011;36113;50.742;6.432;2023-07-24T00:35:47;5.57;;;3.13;;
50225;SDS011;36113;50.742;6.432;2023-07-24T00:38:12;4.70;;;3.30;;
50225;SDS011;36113;50.742;6.432;2023-07-24T00:40:37;6.23;;;4.40;;
50225;SDS011;36113;50.742;6.432;2023-07-24T00:43:03;4.37;;;3.60;;
50225;SDS011;36113;50.742;6.432;2023-07-24T00:45:28;3.43;;;3.23;;
50225;SDS011;36113;50.742;6.432;2023-07-24T00:47:53;4.00;;;3.33;;
50225;SDS011;36113;50.742;6.432;2023-07-24T00:50:19;5.80;;;3.10;;
50225;SDS011;36113;50.742;6.432;2023-07-24T00:52:45;3.93;;;3.63;;
50225;SDS011;36113;50.742;6.432;2023-07-24T00:55:11;4.07;;;3.30;;
50225;SDS011;36113;50.742;6.432;2023-07-24T00:57:38;7.00;;;3.47;;
50225;SDS011;36113;50.742;6.432;2023-07-24T01:00:05;6.40;;;3.60;;
50225;SDS011;36113;50.742;6.432;2023-07-24T01:04:56;5.35;;;3.20;;
50225;SDS011;36113;50.742;6.432;2023-07-24T01:07:22;3.67;;;3.37;;
50225;SDS011;36113;50.742;6.432;2023-07-24T01:09:47;3.97;;;3.67;;
50225;SDS011;36113;50.742;6.432;2023-07-24T01:12:19;6.57;;;3.73;;
50225;SDS011;36113;50.742;6.432;2023-07-24T01:14:58;3.67;;;3.38;;
50225;SDS011;36113;50.742;6.432;2023-07-24T01:17:31;6.70;;;3.22;;
50225;SDS011;36113;50.742;6.432;2023-07-24T01:19:58;3.78;;;3.25;;
50225;SDS011;36113;50.742;6.432;2023-07-24T01:25:08;5.15;;;3.20;;
50225;SDS011;36113;50.742;6.432;2023-07-24T01:27:48;4.50;;;3.28;;
50225;SDS011;36113;50.742;6.432;2023-07-24T01:30:16;7.30;;;2.90;;
50225;SDS011;36113;50.742;6.432;2023-07-24T01:32:43;3.83;;;3.53;;
50225;SDS011;36113;50.742;6.432;2023-07-24T01:35:09;9.60;;;3.67;;
50225;SDS011;36113;50.742;6.432;2023-07-24T01:37:34;3.53;;;3.23;;
50225;SDS011;36113;50.742;6.432;2023-07-24T01:40:02;4.10;;;3.45;;
50225;SDS011;36113;50.742;6.432;2023-07-24T01:42:28;5.35;;;4.13;;
50225;SDS011;36113;50.742;6.432;2023-07-24T01:44:54;6.50;;;3.30;;
50225;SDS011;36113;50.742;6.432;2023-07-24T01:47:20;4.03;;;2.85;;
50225;SDS011;36113;50.742;6.432;2023-07-24T01:49:46;5.05;;;2.95;;
50225;SDS011;36113;50.742;6.432;2023-07-24T01:52:12;5.47;;;4.20;;
50225;SDS011;36113;50.742;6.432;2023-07-24T01:54:37;5.17;;;3.40;;
50225;SDS011;36113;50.742;6.432;2023-07-24T01:57:03;5.53;;;3.87;;
50225;SDS011;36113;50.742;6.432;2023-07-24T01:59:28;5.67;;;4.17;;
50225;SDS011;36113;50.742;6.432;2023-07-24T02:01:54;5.93;;;3.97;;
50225;SDS011;36113;50.742;6.432;2023-07-24T02:04:19;6.07;;;3.53;;
50225;SDS011;36113;50.742;6.432;2023-07-24T02:06:47;4.30;;;3.10;;
50225;SDS011;36113;50.742;6.432;2023-07-24T02:09:13;7.45;;;3.70;;
50225;SDS011;36113;50.742;6.432;2023-07-24T02:11:38;3.47;;;3.13;;
50225;SDS011;36113;50.742;6.432;2023-07-24T02:14:04;3.10;;;2.80;;
50225;SDS011;36113;50.742;6.432;2023-07-24T02:16:29;8.00;;;4.50;;
50225;SDS011;36113;50.742;6.432;2023-07-24T02:18:54;4.23;;;3.73;;
50225;SDS011;36113;50.742;6.432;2023-07-24T02:21:20;6.03;;;3.37;;
50225;SDS011;36113;50.742;6.432;2023-07-24T02:23:50;3.83;;;3.35;;
50225;SDS011;36113;50.742;6.432;2023-07-24T02:26:16;3.33;;;3.07;;
50225;SDS011;36113;50.742;6.432;2023-07-24T02:28:41;5.93;;;3.23;;
50225;SDS011;36113;50.742;6.432;2023-07-24T02:31:06;4.07;;;3.40;;
50225;SDS011;36113;50.742;6.432;2023-07-24T02:33:31;5.23;;;3.60;;
50225;SDS011;36113;50.742;6.432;2023-07-24T02:35:57;4.30;;;3.90;;
50225;SDS011;36113;50.742;6.432;2023-07-24T02:38:22;4.87;;;3.87;;
50225;SDS011;36113;50.742;6.432;2023-07-24T02:40:47;6.23;;;3.70;;
50225;SDS011;36113;50.742;6.432;2023-07-24T02:43:13;6.33;;;4.00;;
50225;SDS011;36113;50.742;6.432;2023-07-24T02:45:38;4.53;;;4.13;;
50225;SDS011;36113;50.742;6.432;2023-07-24T02:48:04;5.40;;;3.83;;
50225;SDS011;36113;50.742;6.432;2023-07-24T02:50:29;7.17;;;4.00;;
50225;SDS011;36113;50.742;6.432;2023-07-24T02:52:55;6.60;;;3.97;;
50225;SDS011;36113;50.742;6.432;2023-07-24T02:55:20;4.23;;;3.90;;
50225;SDS011;36113;50.742;6.432;2023-07-24T02:57:45;4.53;;;3.80;;
50225;SDS011;36113;50.742;6.432;2023-07-24T03:00:11;4.27;;;3.87;;
50225;SDS011;36113;50.742;6.432;2023-07-24T03:02:37;6.03;;;4.17;;
50225;SDS011;36113;50.742;6.432;2023-07-24T03:05:03;5.43;;;4.40;;
50225;SDS011;36113;50.742;6.432;2023-07-24T03:07:28;4.87;;;3.70;;
50225;SDS011;36113;50.742;6.432;2023-07-24T03:09:54;6.13;;;4.43;;
50225;SDS011;36113;50.742;6.432;2023-07-24T03:12:19;4.63;;;4.00;;
50225;SDS011;36113;50.742;6.432;2023-07-24T03:14:44;4.63;;;3.60;;
50225;SDS011;36113;50.742;6.432;2023-07-24T03:17:10;4.30;;;3.93;;
50225;SDS011;36113;50.742;6.432;2023-07-24T03:19:35;4.23;;;3.83;;
50225;SDS011;36113;50.742;6.432;2023-07-24T03:22:00;4.80;;;4.30;;
50225;SDS011;36113;50.742;6.432;2023-07-24T03:24:26;5.33;;;3.67;;
50225;SDS011;36113;50.742;6.432;2023-07-24T03:26:51;5.57;;;3.87;;
50225;SDS011;36113;50.742;6.432;2023-07-24T03:29:16;4.23;;;3.83;;
50225;SDS011;36113;50.742;6.432;2023-07-24T03:31:42;4.00;;;3.70;;
50225;SDS011;36113;50.742;6.432;2023-07-24T03:34:07;7.83;;;3.80;;
50225;SDS011;36113;50.742;6.432;2023-07-24T03:36:32;5.67;;;3.70;;
50225;SDS011;36113;50.742;6.432;2023-07-24T03:38:58;4.15;;;3.83;;
50225;SDS011;36113;50.742;6.432;2023-07-24T03:41:24;5.03;;;3.93;;
50225;SDS011;36113;50.742;6.432;2023-07-24T03:43:49;5.50;;;4.00;;
50225;SDS011;36113;50.742;6.432;2023-07-24T03:46:14;5.37;;;3.87;;
50225;SDS011;36113;50.742;6.432;2023-07-24T03:48:40;4.87;;;4.03;;
50225;SDS011;36113;50.742;6.432;2023-07-24T03:51:05;5.97;;;4.53;;
50225;SDS011;36113;50.742;6.432;2023-07-24T03:53:32;4.70;;;4.03;;
50225;SDS011;36113;50.742;6.432;2023-07-24T03:55:57;6.57;;;4.53;;
50225;SDS011;36113;50.742;6.432;2023-07-24T03:58:22;4.93;;;3.97;;
50225;SDS011;36113;50.742;6.432;2023-07-24T04:00:48;6.07;;;3.70;;
50225;SDS011;36113;50.742;6.432;2023-07-24T04:03:13;4.40;;;3.87;;
50225;SDS011;36113;50.742;6.432;2023-07-24T04:05:38;5.73;;;3.73;;
50225;SDS011;36113;50.742;6.432;2023-07-24T04:08:04;4.83;;;4.17;;
50225;SDS011;36113;50.742;6.432;2023-07-24T04:10:29;5.87;;;4.70;;
50225;SDS011;36113;50.742;6.432;2023-07-24T04:12:56;4.55;;;3.60;;
50225;SDS011;36113;50.742;6.432;2023-07-24T04:15:22;6.40;;;4.22;;
50225;SDS011;36113;50.742;6.432;2023-07-24T04:17:47;11.63;;;4.30;;
50225;SDS011;36113;50.742;6.432;2023-07-24T04:20:12;5.30;;;3.93;;
50225;SDS011;36113;50.742;6.432;2023-07-24T04:22:38;4.00;;;3.60;;
50225;SDS011;36113;50.742;6.432;2023-07-24T04:25:03;7.53;;;4.30;;
50225;SDS011;36113;50.742;6.432;2023-07-24T04:27:29;5.07;;;3.77;;
50225;SDS011;36113;50.742;6.432;2023-07-24T04:29:54;4.73;;;4.30;;
50225;SDS011;36113;50.742;6.432;2023-07-24T04:32:19;5.70;;;4.07;;
50225;SDS011;36113;50.742;6.432;2023-07-24T04:34:45;4.90;;;3.80;;
50225;SDS011;36113;50.742;6.432;2023-07-24T04:37:10;5.33;;;3.87;;
50225;SDS011;36113;50.742;6.432;2023-07-24T04:39:38;6.40;;;4.13;;
50225;SDS011;36113;50.742;6.432;2023-07-24T04:42:04;4.32;;;3.92;;
50225;SDS011;36113;50.742;6.432;2023-07-24T04:44:29;5.60;;;4.73;;
50225;SDS011;36113;50.742;6.432;2023-07-24T04:46:55;10.00;;;3.63;;
50225;SDS011;36113;50.742;6.432;2023-07-24T04:49:20;4.57;;;4.13;;
50225;SDS011;36113;50.742;6.432;2023-07-24T04:51:46;5.87;;;4.43;;
50225;SDS011;36113;50.742;6.432;2023-07-24T04:54:11;5.67;;;4.80;;
50225;SDS011;36113;50.742;6.432;2023-07-24T04:56:36;5.57;;;4.40;;
50225;SDS011;36113;50.742;6.432;2023-07-24T04:59:02;7.27;;;4.67;;
50225;SDS011;36113;50.742;6.432;2023-07-24T05:01:27;9.90;;;4.50;;
50225;SDS011;36113;50.742;6.432;2023-07-24T05:03:52;4.90;;;4.40;;
50225;SDS011;36113;50.742;6.432;2023-07-24T05:06:17;5.77;;;4.30;;
50225;SDS011;36113;50.742;6.432;2023-07-24T05:08:43;5.13;;;3.93;;
50225;SDS011;36113;50.742;6.432;2023-07-24T05:11:08;7.93;;;4.40;;
50225;SDS011;36113;50.742;6.432;2023-07-24T05:13:33;4.20;;;3.80;;
50225;SDS011;36113;50.742;6.432;2023-07-24T05:15:59;4.10;;;3.70;;
50225;SDS011;36113;50.742;6.432;2023-07-24T05:18:24;3.73;;;3.43;;
50225;SDS011;36113;50.742;6.432;2023-07-24T05:20:49;6.43;;;3.67;;
50225;SDS011;36113;50.742;6.432;2023-07-24T05:23:18;4.50;;;3.28;;
50225;SDS011;36113;50.742;6.432;2023-07-24T05:25:43;4.03;;;2.97;;
50225;SDS011;36113;50.742;6.432;2023-07-24T05:28:09;4.70;;;2.83;;
50225;SDS011;36113;50.742;6.432;2023-07-24T05:30:34;4.13;;;3.20;;
50225;SDS011;36113;50.742;6.432;2023-07-24T05:33:00;3.73;;;2.93;;
50225;SDS011;36113;50.742;6.432;2023-07-24T05:35:25;2.87;;;2.67;;
50225;SDS011;36113;50.742;6.432;2023-07-24T05:37:51;3.77;;;2.67;;
50225;SDS011;36113;50.742;6.432;2023-07-24T05:40:16;4.10;;;2.93;;
50225;SDS011;36113;50.742;6.432;2023-07-24T05:42:41;3.50;;;2.50;;
50225;SDS011;36113;50.742;6.432;2023-07-24T05:47:34;2.33;;;2.20;;
50225;SDS011;36113;50.742;6.432;2023-07-24T05:49:59;2.70;;;2.40;;
50225;SDS011;36113;50.742;6.432;2023-07-24T05:52:25;4.30;;;2.90;;
50225;SDS011;36113;50.742;6.432;2023-07-24T05:54:50;3.83;;;3.20;;
50225;SDS011;36113;50.742;6.432;2023-07-24T05:57:15;6.73;;;2.87;;
50225;SDS011;36113;50.742;6.432;2023-07-24T05:59:41;3.17;;;2.80;;
50225;SDS011;36113;50.742;6.432;2023-07-24T06:02:06;3.53;;;2.77;;
50225;SDS011;36113;50.742;6.432;2023-07-24T06:04:32;3.05;;;2.65;;
50225;SDS011;36113;50.742;6.432;2023-07-24T06:06:58;3.47;;;2.63;;
50225;SDS011;36113;50.742;6.432;2023-07-24T06:09:23;3.10;;;2.80;;
50225;SDS011;36113;50.742;6.432;2023-07-24T06:11:48;3.13;;;2.83;;
50225;SDS011;36113;50.742;6.432;2023-07-24T06:14:14;3.10;;;2.80;;
50225;SDS011;36113;50.742;6.432;2023-07-24T06:16:39;5.20;;;3.03;;
50225;SDS011;36113;50.742;6.432;2023-07-24T06:19:05;3.47;;;3.17;;
50225;SDS011;36113;50.742;6.432;2023-07-24T06:21:31;4.87;;;3.23;;
50225;SDS011;36113;50.742;6.432;2023-07-24T06:23:56;3.47;;;2.93;;
50225;SDS011;36113;50.742;6.432;2023-07-24T06:26:21;6.10;;;3.10;;
50225;SDS011;36113;50.742;6.432;2023-07-24T06:28:47;3.20;;;3.00;;
50225;SDS011;36113;50.742;6.432;2023-07-24T06:31:12;3.97;;;3.10;;
50225;SDS011;36113;50.742;6.432;2023-07-24T06:33:37;3.90;;;2.77;;
50225;SDS011;36113;50.742;6.432;2023-07-24T06:36:03;6.43;;;3.43;;
50225;SDS011;36113;50.742;6.432;2023-07-24T06:38:28;3.93;;;3.30;;
50225;SDS011;36113;50.742;6.432;2023-07-24T06:40:53;4.17;;;3.47;;
50225;SDS011;36113;50.742;6.432;2023-07-24T06:43:19;4.53;;;3.00;;
50225;SDS011;36113;50.742;6.432;2023-07-24T06:45:44;3.20;;;2.90;;
50225;SDS011;36113;50.742;6.432;2023-07-24T06:48:10;3.60;;;2.90;;
50225;SDS011;36113;50.742;6.432;2023-07-24T06:50:35;3.53;;;2.77;;
50225;SDS011;36113;50.742;6.432;2023-07-24T06:53:01;4.17;;;3.27;;
50225;SDS011;36113;50.742;6.432;2023-07-24T06:55:26;4.63;;;3.07;;
50225;SDS011;36113;50.742;6.432;2023-07-24T06:57:51;3.47;;;2.73;;
50225;SDS011;36113;50.742;6.432;2023-07-24T07:00:17;3.37;;;3.07;;
50225;SDS011;36113;50.742;6.432;2023-07-24T07:02:42;4.13;;;2.97;;
50225;SDS011;36113;50.742;6.432;2023-07-24T07:05:07;4.17;;;3.27;;
50225;SDS011;36113;50.742;6.432;2023-07-24T07:07:33;4.00;;;3.43;;
50225;SDS011;36113;50.742;6.432;2023-07-24T07:09:58;3.73;;;2.90;;
50225;SDS011;36113;50.742;6.432;2023-07-24T07:12:24;4.00;;;3.40;;
50225;SDS011;36113;50.742;6.432;2023-07-24T07:14:49;3.23;;;2.77;;
50225;SDS011;36113;50.742;6.432;2023-07-24T07:17:15;7.27;;;3.47;;
50225;SDS011;36113;50.742;6.432;2023-07-24T07:19:40;3.30;;;3.00;;
50225;SDS011;36113;50.742;6.432;2023-07-24T07:22:05;3.63;;;3.30;;
50225;SDS011;36113;50.742;6.432;2023-07-24T07:24:31;3.90;;;3.40;;
50225;SDS011;36113;50.742;6.432;2023-07-24T07:26:56;3.90;;;3.40;;
50225;SDS011;36113;50.742;6.432;2023-07-24T07:29:22;6.93;;;3.53;;
50225;SDS011;36113;50.742;6.432;2023-07-24T07:31:47;2.63;;;2.43;;
50225;SDS011;36113;50.742;6.432;2023-07-24T07:34:12;3.63;;;3.30;;
50225;SDS011;36113;50.742;6.432;2023-07-24T07:36:38;7.47;;;3.20;;
50225;SDS011;36113;50.742;6.432;2023-07-24T07:39:03;4.43;;;3.43;;
50225;SDS011;36113;50.742;6.432;2023-07-24T07:41:29;3.47;;;3.13;;
50225;SDS011;36113;50.742;6.432;2023-07-24T07:43:57;3.22;;;2.92;;
50225;SDS011;36113;50.742;6.432;2023-07-24T07:46:23;3.37;;;3.07;;
50225;SDS011;36113;50.742;6.432;2023-07-24T07:48:48;3.27;;;2.93;;
50225;SDS011;36113;50.742;6.432;2023-07-24T07:51:14;3.10;;;2.80;;
50225;SDS011;36113;50.742;6.432;2023-07-24T07:53:39;3.93;;;3.00;;
50225;SDS011;36113;50.742;6.432;2023-07-24T07:56:05;4.20;;;2.73;;
50225;SDS011;36113;50.742;6.432;2023-07-24T07:58:30;4.77;;;2.77;;
50225;SDS011;36113;50.742;6.432;2023-07-24T08:00:56;5.17;;;2.83;;
50225;SDS011;36113;50.742;6.432;2023-07-24T08:03:21;3.20;;;2.90;;
50225;SDS011;36113;50.742;6.432;2023-07-24T08:05:47;2.93;;;2.73;;
50225;SDS011;36113;50.742;6.432;2023-07-24T08:08:12;2.87;;;2.53;;
50225;SDS011;36113;50.742;6.432;2023-07-24T08:10:39;4.97;;;2.90;;
50225;SDS011;36113;50.742;6.432;2023-07-24T08:13:04;3.78;;;2.78;;
50225;SDS011;36113;50.742;6.432;2023-07-24T08:15:36;2.70;;;2.50;;
50225;SDS011;36113;50.742;6.432;2023-07-24T08:18:03;2.38;;;2.17;;
50225;SDS011;36113;50.742;6.432;2023-07-24T08:20:29;2.90;;;2.58;;
50225;SDS011;36113;50.742;6.432;2023-07-24T08:22:54;4.37;;;2.33;;
50225;SDS011;36113;50.742;6.432;2023-07-24T08:25:20;2.57;;;2.17;;
50225;SDS011;36113;50.742;6.432;2023-07-24T08:27:45;2.47;;;2.27;;
50225;SDS011;36113;50.742;6.432;2023-07-24T08:30:10;2.57;;;2.37;;
50225;SDS011;36113;50.742;6.432;2023-07-24T08:32:36;2.07;;;1.97;;
50225;SDS011;36113;50.742;6.432;2023-07-24T08:35:02;1.80;;;1.67;;
50225;SDS011;36113;50.742;6.432;2023-07-24T08:37:27;1.90;;;1.80;;
50225;SDS011;36113;50.742;6.432;2023-07-24T08:39:52;1.97;;;1.80;;
50225;SDS011;36113;50.742;6.432;2023-07-24T08:42:17;2.33;;;2.13;;
50225;SDS011;36113;50.742;6.432;2023-07-24T08:44:45;2.28;;;2.03;;
50225;SDS011;36113;50.742;6.432;2023-07-24T08:47:10;2.30;;;2.10;;
50225;SDS011;36113;50.742;6.432;2023-07-24T08:49:39;2.10;;;1.90;;
50225;SDS011;36113;50.742;6.432;2023-07-24T08:52:07;1.75;;;1.50;;
50225;SDS011;36113;50.742;6.432;2023-07-24T08:54:35;2.20;;;2.10;;
50225;SDS011;36113;50.742;6.432;2023-07-24T08:57:02;1.90;;;1.80;;
50225;SDS011;36113;50.742;6.432;2023-07-24T08:59:29;1.75;;;1.65;;
50225;SDS011;36113;50.742;6.432;2023-07-24T09:01:55;2.13;;;1.90;;
50225;SDS011;36113;50.742;6.432;2023-07-24T09:04:20;1.77;;;1.67;;
50225;SDS011;36113;50.742;6.432;2023-07-24T09:06:45;3.67;;;1.90;;
50225;SDS011;36113;50.742;6.432;2023-07-24T09:09:14;1.43;;;1.33;;
50225;SDS011;36113;50.742;6.432;2023-07-24T09:11:50;1.50;;;1.40;;
50225;SDS011;36113;50.742;6.432;2023-07-24T09:14:28;1.93;;;1.83;;
50225;SDS011;36113;50.742;6.432;2023-07-24T09:17:07;1.85;;;1.75;;
50225;SDS011;36113;50.742;6.432;2023-07-24T09:19:33;2.03;;;1.88;;
50225;SDS011;36113;50.742;6.432;2023-07-24T09:22:09;2.17;;;2.00;;
50225;SDS011;36113;50.742;6.432;2023-07-24T09:24:50;2.00;;;1.70;;
50225;SDS011;36113;50.742;6.432;2023-07-24T09:27:17;2.10;;;1.90;;
50225;SDS011;36113;50.742;6.432;2023-07-24T09:29:42;2.60;;;2.10;;
50225;SDS011;36113;50.742;6.432;2023-07-24T09:32:17;5.90;;;1.90;;
50225;SDS011;36113;50.742;6.432;2023-07-24T09:34:44;2.70;;;2.28;;
50225;SDS011;36113;50.742;6.432;2023-07-24T09:37:09;2.43;;;2.23;;
50225;SDS011;36113;50.742;6.432;2023-07-24T09:39:34;2.00;;;1.90;;
50225;SDS011;36113;50.742;6.432;2023-07-24T09:42:05;1.90;;;1.80;;
50225;SDS011;36113;50.742;6.432;2023-07-24T09:44:32;2.17;;;1.98;;
50225;SDS011;36113;50.742;6.432;2023-07-24T09:46:57;1.88;;;1.73;;
50225;SDS011;36113;50.742;6.432;2023-07-24T09:49:23;2.93;;;2.00;;
50225;SDS011;36113;50.742;6.432;2023-07-24T09:51:48;2.77;;;2.10;;
50225;SDS011;36113;50.742;6.432;2023-07-24T09:56:47;2.45;;;2.25;;
50225;SDS011;36113;50.742;6.432;2023-07-24T09:59:14;2.53;;;1.98;;
50225;SDS011;36113;50.742;6.432;2023-07-24T10:01:40;3.17;;;2.57;;
50225;SDS011;36113;50.742;6.432;2023-07-24T10:04:06;2.47;;;2.22;;
50225;SDS011;36113;50.742;6.432;2023-07-24T10:08:58;3.33;;;2.58;;
50225;SDS011;36113;50.742;6.432;2023-07-24T10:11:23;2.10;;;2.00;;
50225;SDS011;36113;50.742;6.432;2023-07-24T10:13:51;2.53;;;2.15;;
50225;SDS011;36113;50.742;6.432;2023-07-24T10:16:18;2.30;;;2.13;;
50225;SDS011;36113;50.742;6.432;2023-07-24T10:18:44;2.87;;;2.03;;
50225;SDS011;36113;50.742;6.432;2023-07-24T10:21:11;2.22;;;2.13;;
50225;SDS011;36113;50.742;6.432;2023-07-24T10:23:39;4.45;;;2.08;;
50225;SDS011;36113;50.742;6.432;2023-07-24T10:26:06;2.17;;;2.08;;
50225;SDS011;36113;50.742;6.432;2023-07-24T10:28:39;2.33;;;2.13;;
50225;SDS011;36113;50.742;6.432;2023-07-24T10:31:06;2.60;;;2.40;;
50225;SDS011;36113;50.742;6.432;2023-07-24T10:33:35;3.47;;;1.90;;
50225;SDS011;36113;50.742;6.432;2023-07-24T10:36:09;2.13;;;1.75;;
50225;SDS011;36113;50.742;6.432;2023-07-24T10:38:36;2.35;;;2.00;;
50225;SDS011;36113;50.742;6.432;2023-07-24T10:41:04;2.55;;;2.08;;
50225;SDS011;36113;50.742;6.432;2023-07-24T10:43:44;2.45;;;1.83;;
50225;SDS011;36113;50.742;6.432;2023-07-24T10:46:17;2.13;;;1.95;;
50225;SDS011;36113;50.742;6.432;2023-07-24T10:48:47;1.92;;;1.83;;
50225;SDS011;36113;50.742;6.432;2023-07-24T10:51:14;2.00;;;1.80;;
50225;SDS011;36113;50.742;6.432;2023-07-24T10:53:47;2.78;;;2.58;;
50225;SDS011;36113;50.742;6.432;2023-07-24T10:56:14;3.95;;;2.47;;
50225;SDS011;36113;50.742;6.432;2023-07-24T10:58:40;2.70;;;1.60;;
50225;SDS011;36113;50.742;6.432;2023-07-24T11:01:06;1.60;;;1.50;;
50225;SDS011;36113;50.742;6.432;2023-07-24T11:03:35;2.33;;;2.13;;
50225;SDS011;36113;50.742;6.432;2023-07-24T11:06:01;2.40;;;2.20;;
50225;SDS011;36113;50.742;6.432;2023-07-24T11:08:27;2.13;;;2.03;;
50225;SDS011;36113;50.742;6.432;2023-07-24T11:10:56;1.70;;;1.60;;
50225;SDS011;36113;50.742;6.432;2023-07-24T11:13:26;2.60;;;1.38;;
50225;SDS011;36113;50.742;6.432;2023-07-24T11:15:52;2.60;;;1.60;;
50225;SDS011;36113;50.742;6.432;2023-07-24T11:18:19;1.33;;;1.33;;
50225;SDS011;36113;50.742;6.432;2023-07-24T11:20:50;1.17;;;1.13;;
50225;SDS011;36113;50.742;6.432;2023-07-24T11:23:17;1.20;;;1.13;;
50225;SDS011;36113;50.742;6.432;2023-07-24T11:25:43;2.30;;;1.23;;
50225;SDS011;36113;50.742;6.432;2023-07-24T11:28:10;1.55;;;1.27;;
50225;SDS011;36113;50.742;6.432;2023-07-24T11:30:37;0.85;;;0.85;;
50225;SDS011;36113;50.742;6.432;2023-07-24T11:33:03;3.45;;;1.20;;
50225;SDS011;36113;50.742;6.432;2023-07-24T11:35:30;0.80;;;0.80;;
50225;SDS011;36113;50.742;6.432;2023-07-24T11:37:56;0.80;;;0.73;;
50225;SDS011;36113;50.742;6.432;2023-07-24T11:40:29;0.70;;;0.70;;
50225;SDS011;36113;50.742;6.432;2023-07-24T11:43:00;0.70;;;0.70;;
50225;SDS011;36113;50.742;6.432;2023-07-24T11:45:25;3.70;;;0.87;;
50225;SDS011;36113;50.742;6.432;2023-07-24T11:47:50;3.50;;;1.00;;
50225;SDS011;36113;50.742;6.432;2023-07-24T11:50:18;2.67;;;0.80;;
50225;SDS011;36113;50.742;6.432;2023-07-24T11:52:45;1.90;;;0.70;;
50225;SDS011;36113;50.742;6.432;2023-07-24T11:55:11;0.73;;;0.73;;
50225;SDS011;36113;50.742;6.432;2023-07-24T11:57:38;1.38;;;0.70;;
50225;SDS011;36113;50.742;6.432;2023-07-24T12:00:04;2.73;;;0.80;;
50225;SDS011;36113;50.742;6.432;2023-07-24T12:02:31;0.75;;;0.75;;
50225;SDS011;36113;50.742;6.432;2023-07-24T12:04:58;1.35;;;0.90;;
50225;SDS011;36113;50.742;6.432;2023-07-24T12:07:31;1.83;;;0.70;;
50225;SDS011;36113;50.742;6.432;2023-07-24T12:10:00;0.90;;;0.70;;
50225;SDS011;36113;50.742;6.432;2023-07-24T12:12:47;1.77;;;0.80;;
50225;SDS011;36113;50.742;6.432;2023-07-24T12:15:13;2.58;;;0.82;;
50225;SDS011;36113;50.742;6.432;2023-07-24T12:17:39;1.42;;;0.90;;
50225;SDS011;36113;50.742;6.432;2023-07-24T12:20:06;0.80;;;0.80;;
50225;SDS011;36113;50.742;6.432;2023-07-24T12:22:36;0.98;;;0.93;;
50225;SDS011;36113;50.742;6.432;2023-07-24T12:25:03;1.02;;;1.02;;
50225;SDS011;36113;50.742;6.432;2023-07-24T12:27:29;1.85;;;1.00;;
50225;SDS011;36113;50.742;6.432;2023-07-24T12:29:54;2.00;;;1.30;;
50225;SDS011;36113;50.742;6.432;2023-07-24T12:32:20;2.37;;;1.40;;
50225;SDS011;36113;50.742;6.432;2023-07-24T12:34:47;0.90;;;0.90;;
50225;SDS011;36113;50.742;6.432;2023-07-24T12:37:13;1.67;;;1.13;;
50225;SDS011;36113;50.742;6.432;2023-07-24T12:39:39;1.20;;;1.20;;
50225;SDS011;36113;50.742;6.432;2023-07-24T12:42:04;1.17;;;1.17;;
50225;SDS011;36113;50.742;6.432;2023-07-24T12:44:30;2.67;;;1.20;;
50225;SDS011;36113;50.742;6.432;2023-07-24T12:46:55;1.70;;;0.97;;
50225;SDS011;36113;50.742;6.432;2023-07-24T12:49:20;1.17;;;1.17;;
50225;SDS011;36113;50.742;6.432;2023-07-24T12:51:46;1.37;;;1.27;;
50225;SDS011;36113;50.742;6.432;2023-07-24T12:54:11;1.27;;;1.20;;
50225;SDS011;36113;50.742;6.432;2023-07-24T12:56:36;1.00;;;1.00;;
50225;SDS011;36113;50.742;6.432;2023-07-24T12:59:02;1.10;;;1.10;;
50225;SDS011;36113;50.742;6.432;2023-07-24T13:01:28;1.20;;;1.10;;
50225;SDS011;36113;50.742;6.432;2023-07-24T13:03:54;1.30;;;1.00;;
50225;SDS011;36113;50.742;6.432;2023-07-24T13:06:19;1.38;;;1.27;;
50225;SDS011;36113;50.742;6.432;2023-07-24T13:08:45;1.40;;;1.27;;
50225;SDS011;36113;50.742;6.432;2023-07-24T13:11:10;4.20;;;1.40;;
50225;SDS011;36113;50.742;6.432;2023-07-24T13:13:35;1.00;;;1.00;;
50225;SDS011;36113;50.742;6.432;2023-07-24T13:16:01;1.33;;;1.23;;
50225;SDS011;36113;50.742;6.432;2023-07-24T13:20:53;19.77;;;1.90;;
50225;SDS011;36113;50.742;6.432;2023-07-24T13:23:18;1.20;;;1.20;;
50225;SDS011;36113;50.742;6.432;2023-07-24T13:25:43;1.90;;;1.37;;
50225;SDS011;36113;50.742;6.432;2023-07-24T13:28:09;1.13;;;1.13;;
50225;SDS011;36113;50.742;6.432;2023-07-24T13:30:35;1.40;;;1.30;;
50225;SDS011;36113;50.742;6.432;2023-07-24T13:33:00;1.50;;;1.37;;
50225;SDS011;36113;50.742;6.432;2023-07-24T13:35:25;2.10;;;1.20;;
50225;SDS011;36113;50.742;6.432;2023-07-24T13:37:50;1.83;;;1.30;;
50225;SDS011;36113;50.742;6.432;2023-07-24T13:40:16;1.43;;;1.20;;
50225;SDS011;36113;50.742;6.432;2023-07-24T13:42:41;3.50;;;1.60;;
50225;SDS011;36113;50.742;6.432;2023-07-24T13:45:07;3.00;;;1.10;;
50225;SDS011;36113;50.742;6.432;2023-07-24T13:47:32;1.00;;;1.00;;
50225;SDS011;36113;50.742;6.432;2023-07-24T13:49:58;1.27;;;1.23;;
50225;SDS011;36113;50.742;6.432;2023-07-24T13:52:24;2.15;;;1.13;;
50225;SDS011;36113;50.742;6.432;2023-07-24T13:54:50;1.23;;;1.17;;
50225;SDS011;36113;50.742;6.432;2023-07-24T13:57:15;1.40;;;1.40;;
50225;SDS011;36113;50.742;6.432;2023-07-24T13:59:40;2.60;;;1.30;;
50225;SDS011;36113;50.742;6.432;2023-07-24T14:02:06;1.37;;;1.27;;
50225;SDS011;36113;50.742;6.432;2023-07-24T14:04:31;1.20;;;1.20;;
50225;SDS011;36113;50.742;6.432;2023-07-24T14:06:57;2.10;;;1.50;;
50225;SDS011;36113;50.742;6.432;2023-07-24T14:09:22;1.90;;;1.77;;
50225;SDS011;36113;50.742;6.432;2023-07-24T14:11:48;1.40;;;1.33;;
50225;SDS011;36113;50.742;6.432;2023-07-24T14:14:13;1.57;;;1.47;;
50225;SDS011;36113;50.742;6.432;2023-07-24T14:16:38;2.10;;;1.50;;
50225;SDS011;36113;50.742;6.432;2023-07-24T14:19:04;2.00;;;1.60;;
50225;SDS011;36113;50.742;6.432;2023-07-24T14:21:29;1.63;;;0.87;;
50225;SDS011;36113;50.742;6.432;2023-07-24T14:23:54;1.30;;;1.20;;
50225;SDS011;36113;50.742;6.432;2023-07-24T14:26:20;1.43;;;1.33;;
50225;SDS011;36113;50.742;6.432;2023-07-24T14:28:46;1.30;;;1.20;;
50225;SDS011;36113;50.742;6.432;2023-07-24T14:31:11;1.23;;;1.23;;
50225;SDS011;36113;50.742;6.432;2023-07-24T14:33:36;2.40;;;1.47;;
50225;SDS011;36113;50.742;6.432;2023-07-24T14:36:01;2.13;;;1.70;;
50225;SDS011;36113;50.742;6.432;2023-07-24T14:38:27;1.53;;;1.43;;
50225;SDS011;36113;50.742;6.432;2023-07-24T14:40:53;0.80;;;0.80;;
50225;SDS011;36113;50.742;6.432;2023-07-24T14:43:18;1.60;;;1.50;;
50225;SDS011;36113;50.742;6.432;2023-07-24T14:45:43;2.20;;;1.47;;
50225;SDS011;36113;50.742;6.432;2023-07-24T14:48:09;2.03;;;1.30;;
50225;SDS011;36113;50.742;6.432;2023-07-24T14:50:34;1.60;;;1.50;;
50225;SDS011;36113;50.742;6.432;2023-07-24T14:53:00;1.40;;;1.10;;
50225;SDS011;36113;50.742;6.432;2023-07-24T14:55:25;1.70;;;1.17;;
50225;SDS011;36113;50.742;6.432;2023-07-24T14:57:50;1.27;;;1.17;;